Aviation Digital Data Service (ADDS)

Output produced by TAFs form (1105 UTC 01 November 2014)
found at http://aviationweather.gov/adds/tafs/
 
KMTJ 010540Z 0106/0206 16010KT P6SM SCT090 BKN150 
     FM011700 20022G32KT P6SM SCT100 BKN140 
     FM020300 17012G18KT P6SM SCT100 BKN250